Terminal Aerodrome Forecast
Issued by NWS Boston, MA

Home | Current Version | Previous Version | Text Only | Print | Product List | Glossary Off
Versions: 1 2 3 4 5 6 7 8 9 10 11 12 13 14 15 16 17 18 19 20 21 22 23 24 25 26 27 28 29 30 31 32 33 34 35 36 37 38 39 40 41 42 43 44
000 FTUS41 KBOX 271805 AAA TAFBDL TAF AMD KBDL 271805Z 2718/2824 18010KT P6SM VCTS BKN060CB FM272200 23007KT P6SM VCSH BKN045 FM280000 24005KT P6SM SCT045 FM281300 29010KT P6SM FEW250 FM281700 29010G18KT P6SM SCT045 FM282300 27006KT P6SM FEW045=

USA.gov is the U.S. government's official web portal to all federal, state and local government web resources and services.